Alfred, Maine
Current Conditions -  °F | °C
As of 9:35 PM on Friday 28 Nov 2014 (Local Time) from KSFM Reporting Station
Clear Clear  
Wind Chill: -17°   Ceiling: Unl
Heat Index: -12°   Visibility: 10mi
Dew Point: -17°   Wind: 6mph
Humidity: 67%   Direction: 250°WSW
Pressure: 30.14"   Gusts: NA
Location:  43.48°N, 70.72°W
Report Text: KSFM 290235Z AUTO 25005KT 10SM CLR M12/M17 A3014 RMK AO1
Loading
Personal Weather Stations






























Interactive Weather Map New forecast layout! Learn more

10-Day Weather Forecast

Advertisements
Track Severe Weather on mobile